sensor_id;sensor_type;location;lat;lon;timestamp;noise_LAeq;noise_LA_min;noise_LA_max;noise_LA01;noise_LA95
45964;Laerm;31671;48.092;11.842;2024-03-07T00:00:57;28.90;27.49;30.74;;
45964;Laerm;31671;48.092;11.842;2024-03-07T00:03:23;28.99;27.66;34.92;;
45964;Laerm;31671;48.092;11.842;2024-03-07T00:05:48;28.89;27.48;30.30;;
45964;Laerm;31671;48.092;11.842;2024-03-07T00:08:14;28.91;27.58;33.90;;
45964;Laerm;31671;48.092;11.842;2024-03-07T00:10:40;29.16;27.50;32.38;;
45964;Laerm;31671;48.092;11.842;2024-03-07T00:13:05;28.89;27.43;30.16;;
45964;Laerm;31671;48.092;11.842;2024-03-07T00:15:31;28.94;27.54;30.28;;
45964;Laerm;31671;48.092;11.842;2024-03-07T00:17:57;28.92;27.37;30.07;;
45964;Laerm;31671;48.092;11.842;2024-03-07T00:20:22;29.21;27.68;32.68;;
45964;Laerm;31671;48.092;11.842;2024-03-07T00:22:48;29.01;27.53;31.04;;
45964;Laerm;31671;48.092;11.842;2024-03-07T00:25:14;28.98;27.56;30.51;;
45964;Laerm;31671;48.092;11.842;2024-03-07T00:27:39;28.96;27.52;32.17;;
45964;Laerm;31671;48.092;11.842;2024-03-07T00:30:05;28.96;27.39;34.87;;
45964;Laerm;31671;48.092;11.842;2024-03-07T00:32:31;29.19;27.72;31.57;;
45964;Laerm;31671;48.092;11.842;2024-03-07T00:34:57;31.16;27.70;60.99;;
45964;Laerm;31671;48.092;11.842;2024-03-07T00:37:22;28.99;27.61;30.44;;
45964;Laerm;31671;48.092;11.842;2024-03-07T00:39:48;28.93;27.71;31.69;;
45964;Laerm;31671;48.092;11.842;2024-03-07T00:42:14;28.94;27.61;30.77;;
45964;Laerm;31671;48.092;11.842;2024-03-07T00:44:39;28.91;27.51;30.09;;
45964;Laerm;31671;48.092;11.842;2024-03-07T00:47:05;30.19;27.67;59.12;;
45964;Laerm;31671;48.092;11.842;2024-03-07T00:49:31;29.24;27.61;35.93;;
45964;Laerm;31671;48.092;11.842;2024-03-07T00:51:58;29.20;27.66;35.84;;
45964;Laerm;31671;48.092;11.842;2024-03-07T00:54:23;29.20;27.72;33.50;;
45964;Laerm;31671;48.092;11.842;2024-03-07T00:56:49;42.41;27.71;77.92;;
45964;Laerm;31671;48.092;11.842;2024-03-07T00:59:15;45.09;27.56;81.19;;
45964;Laerm;31671;48.092;11.842;2024-03-07T01:01:41;29.08;27.63;39.35;;
45964;Laerm;31671;48.092;11.842;2024-03-07T01:04:07;28.98;27.64;34.00;;
45964;Laerm;31671;48.092;11.842;2024-03-07T01:06:32;29.05;27.65;39.42;;
45964;Laerm;31671;48.092;11.842;2024-03-07T01:08:58;29.03;27.66;36.65;;
45964;Laerm;31671;48.092;11.842;2024-03-07T01:11:24;29.14;27.60;36.41;;
45964;Laerm;31671;48.092;11.842;2024-03-07T01:13:49;29.26;27.60;34.70;;
45964;Laerm;31671;48.092;11.842;2024-03-07T01:16:15;29.90;27.77;44.28;;
45964;Laerm;31671;48.092;11.842;2024-03-07T01:18:41;32.79;27.85;52.81;;
45964;Laerm;31671;48.092;11.842;2024-03-07T01:21:06;30.80;27.81;48.29;;
45964;Laerm;31671;48.092;11.842;2024-03-07T01:23:32;36.60;27.57;70.38;;
45964;Laerm;31671;48.092;11.842;2024-03-07T01:25:58;29.44;27.81;38.45;;
45964;Laerm;31671;48.092;11.842;2024-03-07T01:28:24;29.81;27.63;47.81;;
45964;Laerm;31671;48.092;11.842;2024-03-07T01:30:50;30.59;27.54;48.71;;
45964;Laerm;31671;48.092;11.842;2024-03-07T01:33:16;30.37;27.60;44.98;;
45964;Laerm;31671;48.092;11.842;2024-03-07T01:35:42;29.28;27.70;41.80;;
45964;Laerm;31671;48.092;11.842;2024-03-07T01:38:08;29.58;27.65;45.37;;
45964;Laerm;31671;48.092;11.842;2024-03-07T01:40:33;29.17;27.45;41.34;;
45964;Laerm;31671;48.092;11.842;2024-03-07T01:43:01;29.49;27.75;44.95;;
45964;Laerm;31671;48.092;11.842;2024-03-07T01:45:27;29.73;27.33;47.33;;
45964;Laerm;31671;48.092;11.842;2024-03-07T01:47:53;30.11;27.81;49.65;;
45964;Laerm;31671;48.092;11.842;2024-03-07T01:50:19;29.22;27.67;45.90;;
45964;Laerm;31671;48.092;11.842;2024-03-07T01:52:45;29.35;27.75;45.91;;
45964;Laerm;31671;48.092;11.842;2024-03-07T01:55:11;29.18;27.78;44.93;;
45964;Laerm;31671;48.092;11.842;2024-03-07T01:57:41;29.20;27.70;43.23;;
45964;Laerm;31671;48.092;11.842;2024-03-07T02:00:06;29.41;27.70;48.04;;
45964;Laerm;31671;48.092;11.842;2024-03-07T02:02:32;29.32;27.66;42.98;;
45964;Laerm;31671;48.092;11.842;2024-03-07T02:04:58;29.11;27.62;39.53;;
45964;Laerm;31671;48.092;11.842;2024-03-07T02:07:24;29.20;27.38;36.09;;
45964;Laerm;31671;48.092;11.842;2024-03-07T02:09:50;29.16;27.72;40.64;;
45964;Laerm;31671;48.092;11.842;2024-03-07T02:12:23;29.08;27.63;38.25;;
45964;Laerm;31671;48.092;11.842;2024-03-07T02:14:49;29.08;27.59;40.40;;
45964;Laerm;31671;48.092;11.842;2024-03-07T02:17:15;29.70;27.70;39.65;;
45964;Laerm;31671;48.092;11.842;2024-03-07T02:19:40;29.12;27.62;36.07;;
45964;Laerm;31671;48.092;11.842;2024-03-07T02:22:06;29.05;27.36;34.96;;
45964;Laerm;31671;48.092;11.842;2024-03-07T02:24:32;29.03;27.49;39.92;;
45964;Laerm;31671;48.092;11.842;2024-03-07T02:26:57;29.43;27.70;36.79;;
45964;Laerm;31671;48.092;11.842;2024-03-07T02:29:23;29.03;27.63;42.50;;
45964;Laerm;31671;48.092;11.842;2024-03-07T02:31:49;29.08;27.56;35.54;;
45964;Laerm;31671;48.092;11.842;2024-03-07T02:34:14;29.06;27.48;33.21;;
45964;Laerm;31671;48.092;11.842;2024-03-07T02:36:40;28.99;27.56;33.57;;
45964;Laerm;31671;48.092;11.842;2024-03-07T02:39:06;29.04;27.52;33.31;;
45964;Laerm;31671;48.092;11.842;2024-03-07T02:41:31;29.02;27.61;30.59;;
45964;Laerm;31671;48.092;11.842;2024-03-07T02:43:57;29.42;27.71;32.33;;
45964;Laerm;31671;48.092;11.842;2024-03-07T02:46:23;29.02;27.69;33.46;;
45964;Laerm;31671;48.092;11.842;2024-03-07T02:48:49;28.94;27.82;33.77;;
45964;Laerm;31671;48.092;11.842;2024-03-07T02:51:14;28.99;27.50;39.47;;
45964;Laerm;31671;48.092;11.842;2024-03-07T02:53:40;28.97;27.67;33.71;;
45964;Laerm;31671;48.092;11.842;2024-03-07T02:56:06;28.95;27.79;32.00;;
45964;Laerm;31671;48.092;11.842;2024-03-07T02:58:31;29.00;27.64;33.62;;
45964;Laerm;31671;48.092;11.842;2024-03-07T03:00:58;29.01;27.37;46.10;;
45964;Laerm;31671;48.092;11.842;2024-03-07T03:03:24;28.92;27.66;37.51;;
45964;Laerm;31671;48.092;11.842;2024-03-07T03:05:49;28.88;27.77;31.38;;
45964;Laerm;31671;48.092;11.842;2024-03-07T03:08:15;29.02;27.76;32.90;;
45964;Laerm;31671;48.092;11.842;2024-03-07T03:10:41;28.98;27.53;38.22;;
45964;Laerm;31671;48.092;11.842;2024-03-07T03:13:06;29.01;27.52;33.36;;
45964;Laerm;31671;48.092;11.842;2024-03-07T03:15:32;28.96;27.59;36.66;;
45964;Laerm;31671;48.092;11.842;2024-03-07T03:17:58;28.97;27.76;34.26;;
45964;Laerm;31671;48.092;11.842;2024-03-07T03:20:23;29.01;27.59;34.92;;
45964;Laerm;31671;48.092;11.842;2024-03-07T03:22:52;29.03;27.54;39.67;;
45964;Laerm;31671;48.092;11.842;2024-03-07T03:25:18;28.99;27.68;43.96;;
45964;Laerm;31671;48.092;11.842;2024-03-07T03:27:44;29.48;27.56;34.28;;
45964;Laerm;31671;48.092;11.842;2024-03-07T03:30:10;29.02;27.65;35.83;;
45964;Laerm;31671;48.092;11.842;2024-03-07T03:32:36;28.97;27.54;32.88;;
45964;Laerm;31671;48.092;11.842;2024-03-07T03:35:01;28.97;27.20;35.36;;
45964;Laerm;31671;48.092;11.842;2024-03-07T03:37:27;28.98;27.71;35.43;;
45964;Laerm;31671;48.092;11.842;2024-03-07T03:39:53;28.98;27.68;36.90;;
45964;Laerm;31671;48.092;11.842;2024-03-07T03:42:18;29.10;27.57;35.63;;
45964;Laerm;31671;48.092;11.842;2024-03-07T03:44:44;29.33;27.54;40.03;;
45964;Laerm;31671;48.092;11.842;2024-03-07T03:47:09;29.00;27.64;35.40;;
45964;Laerm;31671;48.092;11.842;2024-03-07T03:49:35;29.24;27.63;38.11;;
45964;Laerm;31671;48.092;11.842;2024-03-07T03:52:01;28.98;27.58;35.95;;
45964;Laerm;31671;48.092;11.842;2024-03-07T03:54:26;29.09;27.76;33.77;;
45964;Laerm;31671;48.092;11.842;2024-03-07T03:56:52;29.01;27.60;35.55;;
45964;Laerm;31671;48.092;11.842;2024-03-07T03:59:18;29.00;27.71;35.19;;
45964;Laerm;31671;48.092;11.842;2024-03-07T04:01:43;29.01;27.69;35.24;;
45964;Laerm;31671;48.092;11.842;2024-03-07T04:04:09;29.09;27.67;35.84;;
45964;Laerm;31671;48.092;11.842;2024-03-07T04:06:35;29.03;27.78;35.80;;
45964;Laerm;31671;48.092;11.842;2024-03-07T04:09:00;29.00;27.66;32.81;;
45964;Laerm;31671;48.092;11.842;2024-03-07T04:11:26;29.13;27.42;35.68;;
45964;Laerm;31671;48.092;11.842;2024-03-07T04:13:52;29.59;27.68;41.16;;
45964;Laerm;31671;48.092;11.842;2024-03-07T04:16:17;29.34;27.61;42.48;;
45964;Laerm;31671;48.092;11.842;2024-03-07T04:18:43;29.23;27.81;43.24;;
45964;Laerm;31671;48.092;11.842;2024-03-07T04:21:09;29.38;27.69;41.97;;
45964;Laerm;31671;48.092;11.842;2024-03-07T04:23:34;29.09;27.62;38.46;;
45964;Laerm;31671;48.092;11.842;2024-03-07T04:26:00;29.13;27.60;39.42;;
45964;Laerm;31671;48.092;11.842;2024-03-07T04:28:26;29.21;27.65;41.29;;
45964;Laerm;31671;48.092;11.842;2024-03-07T04:30:51;29.21;27.77;43.41;;
45964;Laerm;31671;48.092;11.842;2024-03-07T04:33:17;29.08;27.67;38.75;;
45964;Laerm;31671;48.092;11.842;2024-03-07T04:35:43;29.08;27.71;38.35;;
45964;Laerm;31671;48.092;11.842;2024-03-07T04:38:08;29.01;27.68;38.89;;
45964;Laerm;31671;48.092;11.842;2024-03-07T04:40:34;29.13;27.73;38.80;;
45964;Laerm;31671;48.092;11.842;2024-03-07T04:43:00;29.12;27.66;41.68;;
45964;Laerm;31671;48.092;11.842;2024-03-07T04:45:25;29.16;27.39;40.56;;
45964;Laerm;31671;48.092;11.842;2024-03-07T04:47:51;29.15;27.77;42.33;;
45964;Laerm;31671;48.092;11.842;2024-03-07T04:50:17;29.05;27.75;37.46;;
45964;Laerm;31671;48.092;11.842;2024-03-07T04:52:42;29.08;27.78;40.56;;
45964;Laerm;31671;48.092;11.842;2024-03-07T04:55:08;29.10;27.52;39.21;;
45964;Laerm;31671;48.092;11.842;2024-03-07T04:57:35;29.12;27.57;40.48;;
45964;Laerm;31671;48.092;11.842;2024-03-07T05:00:00;29.23;27.72;40.41;;
45964;Laerm;31671;48.092;11.842;2024-03-07T05:02:26;29.34;27.70;41.43;;
45964;Laerm;31671;48.092;11.842;2024-03-07T05:04:52;29.35;27.58;38.75;;
45964;Laerm;31671;48.092;11.842;2024-03-07T05:07:17;29.43;27.79;39.42;;
45964;Laerm;31671;48.092;11.842;2024-03-07T05:09:43;29.49;27.85;36.25;;
45964;Laerm;31671;48.092;11.842;2024-03-07T05:12:09;29.59;27.80;40.94;;
45964;Laerm;31671;48.092;11.842;2024-03-07T05:14:34;29.56;27.69;38.51;;
45964;Laerm;31671;48.092;11.842;2024-03-07T05:17:00;29.48;27.73;37.83;;
45964;Laerm;31671;48.092;11.842;2024-03-07T05:19:26;29.49;27.80;38.49;;
45964;Laerm;31671;48.092;11.842;2024-03-07T05:21:51;29.32;27.71;40.29;;
45964;Laerm;31671;48.092;11.842;2024-03-07T05:24:17;29.39;27.89;42.03;;
45964;Laerm;31671;48.092;11.842;2024-03-07T05:26:43;29.18;27.71;39.08;;
45964;Laerm;31671;48.092;11.842;2024-03-07T05:29:09;29.55;27.59;41.46;;
45964;Laerm;31671;48.092;11.842;2024-03-07T05:31:36;29.46;27.70;42.62;;
45964;Laerm;31671;48.092;11.842;2024-03-07T05:34:02;29.29;27.59;40.50;;
45964;Laerm;31671;48.092;11.842;2024-03-07T05:36:28;29.30;27.49;35.69;;
45964;Laerm;31671;48.092;11.842;2024-03-07T05:38:53;29.21;27.66;39.88;;
45964;Laerm;31671;48.092;11.842;2024-03-07T05:41:22;29.21;27.69;39.53;;
45964;Laerm;31671;48.092;11.842;2024-03-07T05:43:47;29.26;27.48;45.70;;
45964;Laerm;31671;48.092;11.842;2024-03-07T05:46:13;29.11;27.71;34.22;;
45964;Laerm;31671;48.092;11.842;2024-03-07T05:48:39;29.19;27.80;41.65;;
45964;Laerm;31671;48.092;11.842;2024-03-07T05:51:04;29.16;27.76;33.76;;
45964;Laerm;31671;48.092;11.842;2024-03-07T05:53:30;29.21;27.84;37.56;;
45964;Laerm;31671;48.092;11.842;2024-03-07T05:55:56;29.17;27.86;34.82;;
45964;Laerm;31671;48.092;11.842;2024-03-07T05:58:21;29.13;27.73;31.12;;
45964;Laerm;31671;48.092;11.842;2024-03-07T06:00:47;29.08;27.82;31.86;;
45964;Laerm;31671;48.092;11.842;2024-03-07T06:03:13;29.20;27.68;35.04;;
45964;Laerm;31671;48.092;11.842;2024-03-07T06:05:38;29.23;27.77;35.84;;
45964;Laerm;31671;48.092;11.842;2024-03-07T06:08:04;29.42;27.43;40.23;;
45964;Laerm;31671;48.092;11.842;2024-03-07T06:10:30;29.21;27.76;32.74;;
45964;Laerm;31671;48.092;11.842;2024-03-07T06:12:56;29.28;27.87;35.33;;
45964;Laerm;31671;48.092;11.842;2024-03-07T06:15:22;29.12;27.52;41.45;;
45964;Laerm;31671;48.092;11.842;2024-03-07T06:17:47;29.18;27.58;31.75;;
45964;Laerm;31671;48.092;11.842;2024-03-07T06:20:13;29.16;27.53;30.90;;
45964;Laerm;31671;48.092;11.842;2024-03-07T06:22:39;29.21;27.81;31.75;;
45964;Laerm;31671;48.092;11.842;2024-03-07T06:25:05;29.36;27.54;33.07;;
45964;Laerm;31671;48.092;11.842;2024-03-07T06:27:30;29.16;27.69;30.85;;
45964;Laerm;31671;48.092;11.842;2024-03-07T06:29:56;29.24;27.78;31.07;;
45964;Laerm;31671;48.092;11.842;2024-03-07T06:32:22;29.29;27.84;31.64;;
45964;Laerm;31671;48.092;11.842;2024-03-07T06:34:47;29.32;27.88;31.37;;
45964;Laerm;31671;48.092;11.842;2024-03-07T06:37:13;29.40;27.90;31.30;;
45964;Laerm;31671;48.092;11.842;2024-03-07T06:39:39;29.28;27.66;34.40;;
45964;Laerm;31671;48.092;11.842;2024-03-07T06:42:04;29.39;27.77;34.74;;
45964;Laerm;31671;48.092;11.842;2024-03-07T06:44:30;29.36;28.00;32.81;;
45964;Laerm;31671;48.092;11.842;2024-03-07T06:46:56;29.20;27.76;32.56;;
45964;Laerm;31671;48.092;11.842;2024-03-07T06:49:21;29.37;27.92;31.33;;
45964;Laerm;31671;48.092;11.842;2024-03-07T06:51:47;29.13;27.53;32.30;;
45964;Laerm;31671;48.092;11.842;2024-03-07T06:54:13;29.31;27.84;32.46;;
45964;Laerm;31671;48.092;11.842;2024-03-07T06:56:38;29.52;27.90;35.61;;
45964;Laerm;31671;48.092;11.842;2024-03-07T06:59:04;29.27;27.62;32.94;;
45964;Laerm;31671;48.092;11.842;2024-03-07T07:01:30;29.61;27.75;41.79;;
45964;Laerm;31671;48.092;11.842;2024-03-07T07:03:55;29.77;28.05;38.60;;
45964;Laerm;31671;48.092;11.842;2024-03-07T07:06:21;29.52;27.57;35.38;;
45964;Laerm;31671;48.092;11.842;2024-03-07T07:08:47;29.54;27.56;41.78;;
45964;Laerm;31671;48.092;11.842;2024-03-07T07:11:12;29.74;27.67;35.28;;
45964;Laerm;31671;48.092;11.842;2024-03-07T07:13:38;29.77;27.83;40.63;;
45964;Laerm;31671;48.092;11.842;2024-03-07T07:16:04;30.66;27.89;44.23;;
45964;Laerm;31671;48.092;11.842;2024-03-07T07:18:30;30.03;27.97;39.85;;
45964;Laerm;31671;48.092;11.842;2024-03-07T07:20:55;29.56;27.91;35.11;;
45964;Laerm;31671;48.092;11.842;2024-03-07T07:23:21;30.27;27.98;45.88;;
45964;Laerm;31671;48.092;11.842;2024-03-07T07:25:46;30.52;28.04;44.52;;
45964;Laerm;31671;48.092;11.842;2024-03-07T07:28:12;29.78;27.71;43.85;;
45964;Laerm;31671;48.092;11.842;2024-03-07T07:30:38;29.28;27.85;36.32;;
45964;Laerm;31671;48.092;11.842;2024-03-07T07:33:04;30.17;27.94;45.94;;
45964;Laerm;31671;48.092;11.842;2024-03-07T07:35:30;32.63;28.05;47.87;;
45964;Laerm;31671;48.092;11.842;2024-03-07T07:37:55;30.08;28.05;45.65;;
45964;Laerm;31671;48.092;11.842;2024-03-07T07:40:22;29.52;27.94;36.21;;
45964;Laerm;31671;48.092;11.842;2024-03-07T07:42:51;29.47;27.93;32.36;;
45964;Laerm;31671;48.092;11.842;2024-03-07T07:45:18;29.64;28.07;36.06;;
45964;Laerm;31671;48.092;11.842;2024-03-07T07:47:44;29.52;27.97;36.85;;
45964;Laerm;31671;48.092;11.842;2024-03-07T07:50:11;29.55;27.88;39.32;;
45964;Laerm;31671;48.092;11.842;2024-03-07T07:52:39;32.38;28.07;47.93;;
45964;Laerm;31671;48.092;11.842;2024-03-07T07:55:05;32.43;28.11;48.68;;
45964;Laerm;31671;48.092;11.842;2024-03-07T07:57:30;29.71;28.01;36.44;;
45964;Laerm;31671;48.092;11.842;2024-03-07T07:59:56;29.58;28.03;33.74;;
45964;Laerm;31671;48.092;11.842;2024-03-07T08:02:22;29.69;27.99;37.98;;
45964;Laerm;31671;48.092;11.842;2024-03-07T08:04:47;29.86;28.00;37.86;;
45964;Laerm;31671;48.092;11.842;2024-03-07T08:07:13;29.90;27.78;40.20;;
45964;Laerm;31671;48.092;11.842;2024-03-07T08:09:39;31.45;28.18;49.82;;
45964;Laerm;31671;48.092;11.842;2024-03-07T08:12:05;29.76;27.87;34.12;;
45964;Laerm;31671;48.092;11.842;2024-03-07T08:14:30;29.70;28.06;38.13;;
45964;Laerm;31671;48.092;11.842;2024-03-07T08:16:56;30.53;28.09;44.21;;
45964;Laerm;31671;48.092;11.842;2024-03-07T08:19:22;29.98;28.27;43.77;;
45964;Laerm;31671;48.092;11.842;2024-03-07T08:21:47;30.69;28.25;47.17;;
45964;Laerm;31671;48.092;11.842;2024-03-07T08:24:13;31.16;28.07;45.09;;
45964;Laerm;31671;48.092;11.842;2024-03-07T08:26:39;30.66;28.10;47.35;;
45964;Laerm;31671;48.092;11.842;2024-03-07T08:29:04;29.87;28.26;41.83;;
45964;Laerm;31671;48.092;11.842;2024-03-07T08:31:30;31.17;28.11;46.36;;
45964;Laerm;31671;48.092;11.842;2024-03-07T08:33:56;29.67;28.18;36.78;;
45964;Laerm;31671;48.092;11.842;2024-03-07T08:36:21;29.61;28.13;33.74;;
45964;Laerm;31671;48.092;11.842;2024-03-07T08:38:47;29.46;28.14;32.75;;
45964;Laerm;31671;48.092;11.842;2024-03-07T08:41:13;29.65;28.30;32.62;;
45964;Laerm;31671;48.092;11.842;2024-03-07T08:43:38;29.57;28.06;36.05;;
45964;Laerm;31671;48.092;11.842;2024-03-07T08:46:04;29.43;27.92;31.65;;
45964;Laerm;31671;48.092;11.842;2024-03-07T08:48:30;29.45;28.13;32.13;;
45964;Laerm;31671;48.092;11.842;2024-03-07T08:50:55;29.51;28.09;35.92;;
45964;Laerm;31671;48.092;11.842;2024-03-07T08:53:21;29.73;28.15;37.19;;
45964;Laerm;31671;48.092;11.842;2024-03-07T08:55:47;29.48;27.79;38.08;;
45964;Laerm;31671;48.092;11.842;2024-03-07T08:58:12;29.43;27.93;34.81;;
45964;Laerm;31671;48.092;11.842;2024-03-07T09:00:38;29.56;27.90;37.33;;
45964;Laerm;31671;48.092;11.842;2024-03-07T09:03:04;29.62;28.06;36.59;;
45964;Laerm;31671;48.092;11.842;2024-03-07T09:05:30;29.69;27.97;36.40;;
45964;Laerm;31671;48.092;11.842;2024-03-07T09:07:55;29.83;28.10;38.31;;
45964;Laerm;31671;48.092;11.842;2024-03-07T09:10:21;29.57;28.15;35.48;;
45964;Laerm;31671;48.092;11.842;2024-03-07T09:12:49;29.56;28.06;34.21;;
45964;Laerm;31671;48.092;11.842;2024-03-07T09:15:15;29.61;27.80;36.62;;
45964;Laerm;31671;48.092;11.842;2024-03-07T09:17:41;29.52;28.00;37.03;;
45964;Laerm;31671;48.092;11.842;2024-03-07T09:20:07;29.83;27.99;39.14;;
45964;Laerm;31671;48.092;11.842;2024-03-07T09:22:32;29.57;28.06;36.77;;
45964;Laerm;31671;48.092;11.842;2024-03-07T09:24:58;29.54;28.13;33.08;;
45964;Laerm;31671;48.092;11.842;2024-03-07T09:27:24;29.73;28.21;38.35;;
45964;Laerm;31671;48.092;11.842;2024-03-07T09:29:50;29.57;27.95;37.82;;
45964;Laerm;31671;48.092;11.842;2024-03-07T09:32:16;29.46;28.08;31.22;;
45964;Laerm;31671;48.092;11.842;2024-03-07T09:34:41;29.52;27.62;31.33;;
45964;Laerm;31671;48.092;11.842;2024-03-07T09:37:07;29.40;28.06;32.86;;
45964;Laerm;31671;48.092;11.842;2024-03-07T09:39:33;29.48;28.04;31.58;;
45964;Laerm;31671;48.092;11.842;2024-03-07T09:41:58;29.53;28.10;31.86;;
45964;Laerm;31671;48.092;11.842;2024-03-07T09:44:24;29.49;27.87;32.53;;
45964;Laerm;31671;48.092;11.842;2024-03-07T09:46:55;29.59;28.07;33.70;;
45964;Laerm;31671;48.092;11.842;2024-03-07T09:49:21;29.64;28.31;34.77;;
45964;Laerm;31671;48.092;11.842;2024-03-07T09:51:50;30.15;28.09;41.94;;
45964;Laerm;31671;48.092;11.842;2024-03-07T09:54:16;30.04;27.95;43.83;;
45964;Laerm;31671;48.092;11.842;2024-03-07T09:56:42;29.83;28.18;39.85;;
45964;Laerm;31671;48.092;11.842;2024-03-07T09:59:10;30.55;28.15;42.64;;
45964;Laerm;31671;48.092;11.842;2024-03-07T10:01:36;31.01;28.12;45.96;;
45964;Laerm;31671;48.092;11.842;2024-03-07T10:04:03;30.07;28.00;45.58;;
45964;Laerm;31671;48.092;11.842;2024-03-07T10:06:31;30.38;28.10;45.27;;
45964;Laerm;31671;48.092;11.842;2024-03-07T10:08:57;29.39;27.94;35.35;;
45964;Laerm;31671;48.092;11.842;2024-03-07T10:11:23;29.60;28.23;34.62;;
45964;Laerm;31671;48.092;11.842;2024-03-07T10:13:48;29.56;28.02;39.77;;
45964;Laerm;31671;48.092;11.842;2024-03-07T10:16:15;29.70;27.98;41.74;;
45964;Laerm;31671;48.092;11.842;2024-03-07T10:18:41;29.51;28.15;34.18;;
45964;Laerm;31671;48.092;11.842;2024-03-07T10:21:07;29.43;28.15;30.98;;
45964;Laerm;31671;48.092;11.842;2024-03-07T10:23:33;29.44;27.94;32.11;;
45964;Laerm;31671;48.092;11.842;2024-03-07T10:25:59;29.40;28.05;32.68;;
45964;Laerm;31671;48.092;11.842;2024-03-07T10:28:26;29.50;27.94;31.37;;
45964;Laerm;31671;48.092;11.842;2024-03-07T10:30:51;29.37;27.86;32.46;;
45964;Laerm;31671;48.092;11.842;2024-03-07T10:33:17;29.54;27.95;31.25;;
45964;Laerm;31671;48.092;11.842;2024-03-07T10:35:46;29.42;27.84;32.23;;
45964;Laerm;31671;48.092;11.842;2024-03-07T10:38:12;29.44;27.98;32.86;;
45964;Laerm;31671;48.092;11.842;2024-03-07T10:40:38;29.45;27.98;36.72;;
45964;Laerm;31671;48.092;11.842;2024-03-07T10:43:04;29.47;27.92;32.65;;
45964;Laerm;31671;48.092;11.842;2024-03-07T10:45:33;29.51;28.11;31.32;;
45964;Laerm;31671;48.092;11.842;2024-03-07T10:47:59;31.50;28.04;46.95;;
45964;Laerm;31671;48.092;11.842;2024-03-07T10:50:35;29.48;28.25;32.18;;
45964;Laerm;31671;48.092;11.842;2024-03-07T10:53:08;29.45;27.78;34.78;;
45964;Laerm;31671;48.092;11.842;2024-03-07T10:58:14;29.46;27.91;36.10;;
45964;Laerm;31671;48.092;11.842;2024-03-07T11:00:45;29.74;28.04;39.81;;
45964;Laerm;31671;48.092;11.842;2024-03-07T11:03:12;29.63;27.90;36.33;;
45964;Laerm;31671;48.092;11.842;2024-03-07T11:05:39;29.61;28.22;32.30;;
45964;Laerm;31671;48.092;11.842;2024-03-07T11:08:06;29.56;28.09;32.47;;
45964;Laerm;31671;48.092;11.842;2024-03-07T11:10:33;29.42;27.93;31.56;;
45964;Laerm;31671;48.092;11.842;2024-03-07T11:13:00;29.47;28.13;31.96;;
45964;Laerm;31671;48.092;11.842;2024-03-07T11:15:27;29.43;28.03;32.10;;
45964;Laerm;31671;48.092;11.842;2024-03-07T11:17:53;29.52;28.23;31.77;;
45964;Laerm;31671;48.092;11.842;2024-03-07T11:20:23;29.63;28.23;31.37;;
45964;Laerm;31671;48.092;11.842;2024-03-07T11:22:49;29.77;28.45;31.33;;
45964;Laerm;31671;48.092;11.842;2024-03-07T11:25:18;29.74;28.46;31.22;;
45964;Laerm;31671;48.092;11.842;2024-03-07T11:28:02;30.00;28.33;32.23;;
45964;Laerm;31671;48.092;11.842;2024-03-07T11:30:28;30.30;28.42;47.87;;
45964;Laerm;31671;48.092;11.842;2024-03-07T11:32:54;33.88;28.84;51.49;;
45964;Laerm;31671;48.092;11.842;2024-03-07T11:35:20;31.82;28.69;48.87;;
45964;Laerm;31671;48.092;11.842;2024-03-07T11:37:47;34.19;28.62;46.57;;
45964;Laerm;31671;48.092;11.842;2024-03-07T11:40:13;34.08;28.56;47.83;;
45964;Laerm;31671;48.092;11.842;2024-03-07T11:42:42;30.37;28.18;45.88;;
45964;Laerm;31671;48.092;11.842;2024-03-07T11:45:09;31.40;28.34;45.67;;
45964;Laerm;31671;48.092;11.842;2024-03-07T11:47:35;29.48;28.19;30.98;;
45964;Laerm;31671;48.092;11.842;2024-03-07T11:50:01;29.52;27.80;31.92;;
45964;Laerm;31671;48.092;11.842;2024-03-07T11:52:27;29.63;28.15;39.77;;
45964;Laerm;31671;48.092;11.842;2024-03-07T11:54:53;29.84;28.06;39.34;;
45964;Laerm;31671;48.092;11.842;2024-03-07T11:57:19;29.46;28.21;39.08;;
45964;Laerm;31671;48.092;11.842;2024-03-07T11:59:45;33.90;28.03;49.42;;
45964;Laerm;31671;48.092;11.842;2024-03-07T12:02:12;29.54;28.12;41.66;;
45964;Laerm;31671;48.092;11.842;2024-03-07T12:04:38;33.97;28.04;48.92;;
45964;Laerm;31671;48.092;11.842;2024-03-07T12:07:04;29.98;28.06;46.95;;
45964;Laerm;31671;48.092;11.842;2024-03-07T12:09:30;30.41;28.10;45.81;;
45964;Laerm;31671;48.092;11.842;2024-03-07T12:11:55;31.77;27.86;48.85;;
45964;Laerm;31671;48.092;11.842;2024-03-07T12:14:21;30.40;28.29;47.94;;
45964;Laerm;31671;48.092;11.842;2024-03-07T12:16:47;29.40;28.04;33.19;;
45964;Laerm;31671;48.092;11.842;2024-03-07T12:19:13;29.48;28.15;35.02;;
45964;Laerm;31671;48.092;11.842;2024-03-07T12:21:38;29.53;27.90;33.24;;
45964;Laerm;31671;48.092;11.842;2024-03-07T12:24:14;29.59;28.22;32.90;;
45964;Laerm;31671;48.092;11.842;2024-03-07T12:26:40;29.66;28.29;36.83;;
45964;Laerm;31671;48.092;11.842;2024-03-07T12:29:09;30.88;28.05;51.90;;
45964;Laerm;31671;48.092;11.842;2024-03-07T12:31:34;29.70;28.40;34.08;;
45964;Laerm;31671;48.092;11.842;2024-03-07T12:34:00;29.76;28.40;37.29;;
45964;Laerm;31671;48.092;11.842;2024-03-07T12:36:28;29.76;28.36;33.88;;
45964;Laerm;31671;48.092;11.842;2024-03-07T12:38:54;29.78;28.52;32.40;;
45964;Laerm;31671;48.092;11.842;2024-03-07T12:41:19;29.82;28.34;33.08;;
45964;Laerm;31671;48.092;11.842;2024-03-07T12:43:48;29.99;28.50;32.96;;
45964;Laerm;31671;48.092;11.842;2024-03-07T12:46:14;29.84;28.14;34.07;;
45964;Laerm;31671;48.092;11.842;2024-03-07T12:48:40;30.36;28.50;43.93;;
45964;Laerm;31671;48.092;11.842;2024-03-07T12:51:05;29.98;28.35;37.82;;
45964;Laerm;31671;48.092;11.842;2024-03-07T12:53:31;30.35;28.46;39.80;;
45964;Laerm;31671;48.092;11.842;2024-03-07T12:55:57;30.08;28.29;39.32;;
45964;Laerm;31671;48.092;11.842;2024-03-07T12:58:23;29.97;28.16;38.02;;
45964;Laerm;31671;48.092;11.842;2024-03-07T13:00:48;30.05;28.25;37.36;;
45964;Laerm;31671;48.092;11.842;2024-03-07T13:03:14;29.93;28.31;36.63;;
45964;Laerm;31671;48.092;11.842;2024-03-07T13:05:40;30.00;28.17;39.55;;
45964;Laerm;31671;48.092;11.842;2024-03-07T13:08:06;29.99;28.14;37.27;;
45964;Laerm;31671;48.092;11.842;2024-03-07T13:10:32;30.18;28.31;38.92;;
45964;Laerm;31671;48.092;11.842;2024-03-07T13:12:58;30.23;28.12;39.41;;
45964;Laerm;31671;48.092;11.842;2024-03-07T13:15:24;30.94;28.25;41.90;;
45964;Laerm;31671;48.092;11.842;2024-03-07T13:17:49;30.69;28.31;39.75;;
45964;Laerm;31671;48.092;11.842;2024-03-07T13:20:15;31.05;28.23;42.82;;
45964;Laerm;31671;48.092;11.842;2024-03-07T13:22:41;30.59;28.24;41.97;;
45964;Laerm;31671;48.092;11.842;2024-03-07T13:25:07;30.84;28.19;41.98;;
45964;Laerm;31671;48.092;11.842;2024-03-07T13:27:33;30.02;28.34;37.88;;